Time,TemperatureF,DewpointF,PressureIn,WindDirection,WindDirectionDegrees,WindSpeedMPH,WindSpeedGustMPH,Humidity,HourlyPrecipIn,Conditions,Clouds,dailyrainin,SoftwareType,DateUTC
2013-11-12 00:14:00,48.2,41.3,29.94,NNE,22,4.7,-999.0,77,-99.99,,,0.00,Acu-Link.com,2013-11-12 05:14:00,
2013-11-12 00:29:00,46.8,42.2,29.95,NNE,22,7.3,-999.0,84,-99.99,,,0.01,Acu-Link.com,2013-11-12 05:29:00,
2013-11-12 00:45:00,46.0,42.6,29.96,NNE,22,4.2,-999.0,88,-99.99,,,0.02,Acu-Link.com,2013-11-12 05:45:00,
2013-11-12 01:00:00,44.4,41.4,29.97,NNE,22,4.2,-999.0,89,-99.99,,,0.03,Acu-Link.com,2013-11-12 06:00:00,
2013-11-12 01:15:00,43.2,40.5,29.98,NNE,22,6.3,-999.0,90,-99.99,,,0.03,Acu-Link.com,2013-11-12 06:15:00,
2013-11-12 01:30:00,42.3,39.9,29.99,NE,45,4.7,-999.0,91,-99.99,,,0.06,Acu-Link.com,2013-11-12 06:30:00,
2013-11-12 01:46:00,40.1,37.7,29.99,NNE,22,7.8,-999.0,91,-99.99,,,0.06,Acu-Link.com,2013-11-12 06:46:00,
2013-11-12 02:01:00,39.0,37.2,30.00,North,0,9.4,-999.0,93,-99.99,,,0.06,Acu-Link.com,2013-11-12 07:01:00,
2013-11-12 02:16:00,37.6,35.5,30.02,North,0,9.9,-999.0,92,-99.99,,,0.07,Acu-Link.com,2013-11-12 07:16:00,
2013-11-12 02:31:00,36.1,34.3,30.03,East,90,4.7,-999.0,93,-99.99,,,0.08,Acu-Link.com,2013-11-12 07:31:00,
2013-11-12 02:46:00,35.6,33.8,30.04,NW,315,6.8,-999.0,93,-99.99,,,0.09,Acu-Link.com,2013-11-12 07:46:00,
2013-11-12 03:01:00,34.2,32.4,30.05,NNE,22,7.3,-999.0,93,-99.99,,,0.09,Acu-Link.com,2013-11-12 08:01:00,
2013-11-12 03:16:00,33.6,32.1,30.06,NNE,22,6.3,-999.0,94,-99.99,,,0.10,Acu-Link.com,2013-11-12 08:16:00,
2013-11-12 03:32:00,33.1,31.8,30.07,North,0,6.3,-999.0,95,-99.99,,,0.11,Acu-Link.com,2013-11-12 08:32:00,
2013-11-12 03:47:00,32.9,31.6,30.07,NNE,22,6.3,-999.0,95,-99.99,,,0.11,Acu-Link.com,2013-11-12 08:47:00,
2013-11-12 04:02:00,32.2,30.9,30.08,North,0,7.8,-999.0,95,-99.99,,,0.11,Acu-Link.com,2013-11-12 09:02:00,
2013-11-12 04:17:00,32.0,31.0,30.08,East,90,4.2,-999.0,96,-99.99,,,0.11,Acu-Link.com,2013-11-12 09:17:00,
2013-11-12 04:32:00,31.8,30.8,30.09,NNW,337,5.3,-999.0,96,-99.99,,,0.11,Acu-Link.com,2013-11-12 09:32:00,
2013-11-12 04:47:00,31.8,30.8,30.10,NNE,22,4.2,-999.0,96,-99.99,,,0.11,Acu-Link.com,2013-11-12 09:47:00,
2013-11-12 05:02:00,31.8,30.8,30.11,NW,315,4.2,-999.0,96,-99.99,,,0.11,Acu-Link.com,2013-11-12 10:02:00,
2013-11-12 05:17:00,31.5,30.5,30.12,North,0,4.7,-999.0,96,-99.99,,,0.11,Acu-Link.com,2013-11-12 10:17:00,
2013-11-12 05:32:00,31.3,30.3,30.13,NE,45,3.7,-999.0,96,-99.99,,,0.11,Acu-Link.com,2013-11-12 10:32:00,
2013-11-12 05:47:00,31.1,29.6,30.14,NW,315,7.8,-999.0,94,-99.99,,,0.11,Acu-Link.com,2013-11-12 10:47:00,
2013-11-12 06:02:00,30.9,29.6,30.15,NE,45,3.7,-999.0,95,-99.99,,,0.11,Acu-Link.com,2013-11-12 11:02:00,
2013-11-12 06:18:00,30.4,28.9,30.16,East,90,4.7,-999.0,94,-99.99,,,0.11,Acu-Link.com,2013-11-12 11:18:00,
2013-11-12 06:33:00,30.4,28.6,30.17,ESE,112,8.3,-999.0,93,-99.99,,,0.11,Acu-Link.com,2013-11-12 11:33:00,
2013-11-12 06:48:00,29.8,27.8,30.18,NE,45,7.3,-999.0,92,-99.99,,,0.11,Acu-Link.com,2013-11-12 11:48:00,
2013-11-12 07:03:00,29.7,26.3,30.19,ENE,67,6.3,-999.0,87,-99.99,,,0.11,Acu-Link.com,2013-11-12 12:03:00,
2013-11-12 07:18:00,29.5,26.7,30.20,ESE,112,4.7,-999.0,89,-99.99,,,0.11,Acu-Link.com,2013-11-12 12:18:00,
2013-11-12 07:33:00,29.5,26.9,30.21,NE,45,6.3,-999.0,90,-99.99,,,0.11,Acu-Link.com,2013-11-12 12:33:00,
2013-11-12 07:48:00,29.5,27.2,30.22,NNW,337,4.7,-999.0,91,-99.99,,,0.11,Acu-Link.com,2013-11-12 12:48:00,
2013-11-12 08:04:00,29.5,26.9,30.23,NNE,22,7.8,-999.0,90,-99.99,,,0.11,Acu-Link.com,2013-11-12 13:04:00,
2013-11-12 08:19:00,28.9,25.8,30.24,NNW,337,7.3,-999.0,88,-99.99,,,0.11,Acu-Link.com,2013-11-12 13:19:00,
2013-11-12 08:34:00,28.9,25.5,30.25,NNE,22,3.7,-999.0,87,-99.99,,,0.11,Acu-Link.com,2013-11-12 13:34:00,
2013-11-12 08:49:00,28.8,25.7,30.25,NE,45,6.8,-999.0,88,-99.99,,,0.11,Acu-Link.com,2013-11-12 13:49:00,
2013-11-12 09:05:00,28.8,25.4,30.27,North,0,5.3,-999.0,87,-99.99,,,0.11,Acu-Link.com,2013-11-12 14:05:00,
2013-11-12 09:20:00,28.2,24.6,30.27,ENE,67,6.3,-999.0,86,-99.99,,,0.11,Acu-Link.com,2013-11-12 14:20:00,
2013-11-12 09:35:00,28.2,24.6,30.28,NE,45,7.8,-999.0,86,-99.99,,,0.11,Acu-Link.com,2013-11-12 14:35:00,
2013-11-12 09:50:00,28.8,24.3,30.28,NNE,22,4.2,-999.0,83,-99.99,,,0.11,Acu-Link.com,2013-11-12 14:50:00,
2013-11-12 10:05:00,28.9,23.8,30.29,NNE,22,6.3,-999.0,81,-99.99,,,0.11,Acu-Link.com,2013-11-12 15:05:00,
2013-11-12 10:20:00,29.1,23.4,30.29,East,90,8.9,-999.0,79,-99.99,,,0.11,Acu-Link.com,2013-11-12 15:20:00,
2013-11-12 10:35:00,29.8,23.5,30.29,NNE,22,6.3,-999.0,77,-99.99,,,0.11,Acu-Link.com,2013-11-12 15:35:00,
2013-11-12 10:50:00,30.2,23.9,30.29,ENE,67,7.3,-999.0,77,-99.99,,,0.11,Acu-Link.com,2013-11-12 15:50:00,
2013-11-12 11:06:00,30.4,23.8,30.30,NNE,22,10.4,-999.0,76,-99.99,,,0.11,Acu-Link.com,2013-11-12 16:06:00,
2013-11-12 11:21:00,30.6,23.3,30.30,NE,45,8.3,-999.0,74,-99.99,,,0.11,Acu-Link.com,2013-11-12 16:21:00,
2013-11-12 11:36:00,31.1,23.5,30.29,ENE,67,7.3,-999.0,73,-99.99,,,0.11,Acu-Link.com,2013-11-12 16:36:00,
2013-11-12 11:51:00,31.3,21.6,30.29,NNW,337,7.8,-999.0,67,-99.99,,,0.11,Acu-Link.com,2013-11-12 16:51:00,
2013-11-12 12:06:00,31.3,22.0,30.28,NW,315,7.3,-999.0,68,-99.99,,,0.11,Acu-Link.com,2013-11-12 17:06:00,
2013-11-12 12:21:00,32.4,22.0,30.28,ESE,112,5.8,-999.0,65,-99.99,,,0.12,Acu-Link.com,2013-11-12 17:21:00,
2013-11-12 12:36:00,33.1,21.9,30.28,ENE,67,6.3,-999.0,63,-99.99,,,0.12,Acu-Link.com,2013-11-12 17:36:00,
2013-11-12 12:51:00,33.3,20.1,30.28,West,270,4.7,-999.0,58,-99.99,,,0.12,Acu-Link.com,2013-11-12 17:51:00,
2013-11-12 13:07:00,33.8,20.6,30.28,NNE,22,6.3,-999.0,58,-99.99,,,0.13,Acu-Link.com,2013-11-12 18:07:00,
2013-11-12 13:22:00,33.8,19.4,30.28,East,90,5.8,-999.0,55,-99.99,,,0.13,Acu-Link.com,2013-11-12 18:22:00,
2013-11-12 13:37:00,33.6,18.3,30.29,East,90,8.9,-999.0,53,-99.99,,,0.13,Acu-Link.com,2013-11-12 18:37:00,
2013-11-12 13:52:00,34.0,20.4,30.29,ENE,67,7.3,-999.0,57,-99.99,,,0.13,Acu-Link.com,2013-11-12 18:52:00,
2013-11-12 14:07:00,34.2,20.6,30.29,ESE,112,6.8,-999.0,57,-99.99,,,0.13,Acu-Link.com,2013-11-12 19:07:00,
2013-11-12 14:22:00,34.3,19.0,30.29,NNE,22,7.8,-999.0,53,-99.99,,,0.13,Acu-Link.com,2013-11-12 19:22:00,
2013-11-12 14:38:00,34.5,20.0,30.29,East,90,6.3,-999.0,55,-99.99,,,0.13,Acu-Link.com,2013-11-12 19:38:00,
2013-11-12 14:53:00,34.7,19.3,30.29,NE,45,8.3,-999.0,53,-99.99,,,0.13,Acu-Link.com,2013-11-12 19:53:00,
2013-11-12 15:08:00,34.2,19.3,30.29,East,90,7.3,-999.0,54,-99.99,,,0.13,Acu-Link.com,2013-11-12 20:08:00,
2013-11-12 15:24:00,35.1,20.2,30.31,ENE,67,5.3,-999.0,54,-99.99,,,0.13,Acu-Link.com,2013-11-12 20:24:00,
2013-11-12 15:39:00,34.5,20.0,30.31,West,270,5.8,-999.0,55,-99.99,,,0.13,Acu-Link.com,2013-11-12 20:39:00,
2013-11-12 15:54:00,34.3,19.4,30.31,East,90,6.3,-999.0,54,-99.99,,,0.13,Acu-Link.com,2013-11-12 20:54:00,
2013-11-12 16:09:00,34.0,20.0,30.32,NNW,337,6.3,-999.0,56,-99.99,,,0.13,Acu-Link.com,2013-11-12 21:09:00,
2013-11-12 16:24:00,34.0,18.7,30.32,NNW,337,5.8,-999.0,53,-99.99,,,0.13,Acu-Link.com,2013-11-12 21:24:00,
2013-11-12 16:40:00,32.9,19.8,30.33,East,90,4.7,-999.0,58,-99.99,,,0.13,Acu-Link.com,2013-11-12 21:40:00,
2013-11-12 16:55:00,33.1,18.7,30.32,ENE,67,6.8,-999.0,55,-99.99,,,0.13,Acu-Link.com,2013-11-12 21:55:00,
2013-11-12 17:10:00,32.2,19.5,30.33,East,90,2.2,-999.0,59,-99.99,,,0.13,Acu-Link.com,2013-11-12 22:10:00,
2013-11-12 17:25:00,31.5,19.2,30.33,North,0,2.2,-999.0,60,-99.99,,,0.13,Acu-Link.com,2013-11-12 22:25:00,
2013-11-12 17:40:00,30.7,18.9,30.33,NNE,22,2.7,-999.0,61,-99.99,,,0.13,Acu-Link.com,2013-11-12 22:40:00,
2013-11-12 17:56:00,30.4,18.6,30.34,NNE,22,2.2,-999.0,61,-99.99,,,0.13,Acu-Link.com,2013-11-12 22:56:00,
2013-11-12 18:11:00,30.0,18.6,30.34,NNE,22,2.7,-999.0,62,-99.99,,,0.13,Acu-Link.com,2013-11-12 23:11:00,
2013-11-12 18:29:00,29.7,18.7,30.35,East,90,2.2,-999.0,63,-99.99,,,0.13,Acu-Link.com,2013-11-12 23:29:00,
2013-11-12 18:44:00,29.3,18.7,30.36,NNE,22,2.2,-999.0,64,-99.99,,,0.13,Acu-Link.com,2013-11-12 23:44:00,
2013-11-12 18:59:00,28.9,18.3,30.36,NE,45,2.2,-999.0,64,-99.99,,,0.13,Acu-Link.com,2013-11-12 23:59:00,
2013-11-12 19:14:00,28.8,18.2,30.35,ENE,67,1.7,-999.0,64,-99.99,,,0.13,Acu-Link.com,2013-11-13 00:14:00,
2013-11-12 19:30:00,28.6,18.4,30.36,NNE,22,2.2,-999.0,65,-99.99,,,0.13,Acu-Link.com,2013-11-13 00:30:00,
2013-11-12 19:45:00,28.4,18.2,30.36,NNE,22,2.7,-999.0,65,-99.99,,,0.13,Acu-Link.com,2013-11-13 00:45:00,
2013-11-12 20:00:00,28.0,18.1,30.36,ENE,67,0.0,-999.0,66,-99.99,,,0.13,Acu-Link.com,2013-11-13 01:00:00,
2013-11-12 20:15:00,28.0,18.5,30.36,NNE,22,2.7,-999.0,67,-99.99,,,0.13,Acu-Link.com,2013-11-13 01:15:00,
2013-11-12 20:30:00,27.9,18.0,30.37,NE,45,3.2,-999.0,66,-99.99,,,0.13,Acu-Link.com,2013-11-13 01:30:00,
2013-11-12 20:45:00,27.9,18.4,30.37,NNW,337,3.2,-999.0,67,-99.99,,,0.13,Acu-Link.com,2013-11-13 01:45:00,
2013-11-12 21:01:00,27.5,18.3,30.37,NNE,22,2.7,-999.0,68,-99.99,,,0.13,Acu-Link.com,2013-11-13 02:01:00,
2013-11-12 21:16:00,27.3,18.2,30.38,East,90,1.7,-999.0,68,-99.99,,,0.13,Acu-Link.com,2013-11-13 02:16:00,
2013-11-12 21:31:00,27.3,18.5,30.38,NE,45,2.2,-999.0,69,-99.99,,,0.13,Acu-Link.com,2013-11-13 02:31:00,
2013-11-12 21:47:00,27.0,18.2,30.39,NNE,22,2.2,-999.0,69,-99.99,,,0.13,Acu-Link.com,2013-11-13 02:47:00,
2013-11-12 22:02:00,26.4,18.0,30.39,East,90,0.0,-999.0,70,-99.99,,,0.13,Acu-Link.com,2013-11-13 03:02:00,
2013-11-12 22:17:00,25.9,17.8,30.39,NE,45,0.0,-999.0,71,-99.99,,,0.13,Acu-Link.com,2013-11-13 03:17:00,
2013-11-12 22:33:00,25.5,17.8,30.39,ENE,67,0.0,-999.0,72,-99.99,,,0.13,Acu-Link.com,2013-11-13 03:33:00,
2013-11-12 22:48:00,24.4,17.0,30.40,West,270,0.0,-999.0,73,-99.99,,,0.13,Acu-Link.com,2013-11-13 03:48:00,
2013-11-12 23:03:00,24.3,17.5,30.40,ENE,67,0.0,-999.0,75,-99.99,,,0.13,Acu-Link.com,2013-11-13 04:03:00,
2013-11-12 23:18:00,23.2,17.1,30.40,WSW,247,0.0,-999.0,77,-99.99,,,0.13,Acu-Link.com,2013-11-13 04:18:00,
2013-11-12 23:33:00,23.5,17.4,30.39,WNW,292,0.0,-999.0,77,-99.99,,,0.13,Acu-Link.com,2013-11-13 04:33:00,
2013-11-12 23:49:00,23.5,17.4,30.39,WNW,292,0.0,-999.0,77,-99.99,,,0.13,Acu-Link.com,2013-11-13 04:49:00,